sensor_id;sensor_type;location;lat;lon;timestamp;P1;durP1;ratioP1;P2;durP2;ratioP2
40198;SDS011;25906;43.536;26.068;2022-10-13T00:02:30;2.75;;;1.67;;
40198;SDS011;25906;43.536;26.068;2022-10-13T00:05:15;4.55;;;1.25;;
40198;SDS011;25906;43.536;26.068;2022-10-13T00:08:01;3.55;;;1.70;;
40198;SDS011;25906;43.536;26.068;2022-10-13T00:10:47;4.03;;;1.80;;
40198;SDS011;25906;43.536;26.068;2022-10-13T00:13:34;3.25;;;1.80;;
40198;SDS011;25906;43.536;26.068;2022-10-13T00:16:19;4.45;;;1.85;;
40198;SDS011;25906;43.536;26.068;2022-10-13T00:19:05;3.47;;;1.65;;
40198;SDS011;25906;43.536;26.068;2022-10-13T00:21:51;3.08;;;1.80;;
40198;SDS011;25906;43.536;26.068;2022-10-13T00:24:36;5.43;;;1.88;;
40198;SDS011;25906;43.536;26.068;2022-10-13T00:27:22;2.42;;;1.50;;
40198;SDS011;25906;43.536;26.068;2022-10-13T00:30:08;4.93;;;1.92;;
40198;SDS011;25906;43.536;26.068;2022-10-13T00:32:54;4.78;;;1.73;;
40198;SDS011;25906;43.536;26.068;2022-10-13T00:35:43;1.75;;;1.48;;
40198;SDS011;25906;43.536;26.068;2022-10-13T00:38:30;4.53;;;2.63;;
40198;SDS011;25906;43.536;26.068;2022-10-13T00:41:16;9.00;;;2.03;;
40198;SDS011;25906;43.536;26.068;2022-10-13T00:44:03;9.80;;;1.90;;
40198;SDS011;25906;43.536;26.068;2022-10-13T00:47:08;2.80;;;1.70;;
40198;SDS011;25906;43.536;26.068;2022-10-13T00:49:54;4.07;;;1.60;;
40198;SDS011;25906;43.536;26.068;2022-10-13T00:52:40;2.75;;;2.00;;
40198;SDS011;25906;43.536;26.068;2022-10-13T00:55:28;5.55;;;1.85;;
40198;SDS011;25906;43.536;26.068;2022-10-13T00:58:16;3.10;;;1.90;;
40198;SDS011;25906;43.536;26.068;2022-10-13T01:01:03;7.57;;;2.08;;
40198;SDS011;25906;43.536;26.068;2022-10-13T01:03:49;2.47;;;1.75;;
40198;SDS011;25906;43.536;26.068;2022-10-13T01:06:35;3.05;;;1.70;;
40198;SDS011;25906;43.536;26.068;2022-10-13T01:09:21;4.88;;;1.92;;
40198;SDS011;25906;43.536;26.068;2022-10-13T01:12:28;2.28;;;1.73;;
40198;SDS011;25906;43.536;26.068;2022-10-13T01:15:48;2.25;;;1.75;;
40198;SDS011;25906;43.536;26.068;2022-10-13T01:18:45;4.53;;;1.85;;
40198;SDS011;25906;43.536;26.068;2022-10-13T01:21:40;4.35;;;1.67;;
40198;SDS011;25906;43.536;26.068;2022-10-13T01:24:42;3.67;;;1.73;;
40198;SDS011;25906;43.536;26.068;2022-10-13T01:30:39;3.90;;;2.00;;
40198;SDS011;25906;43.536;26.068;2022-10-13T01:33:54;5.72;;;2.22;;
40198;SDS011;25906;43.536;26.068;2022-10-13T01:40:15;3.75;;;1.73;;
40198;SDS011;25906;43.536;26.068;2022-10-13T01:46:29;6.10;;;2.15;;
40198;SDS011;25906;43.536;26.068;2022-10-13T01:49:21;5.50;;;2.13;;
40198;SDS011;25906;43.536;26.068;2022-10-13T01:52:14;5.60;;;2.47;;
40198;SDS011;25906;43.536;26.068;2022-10-13T01:55:07;2.33;;;1.70;;
40198;SDS011;25906;43.536;26.068;2022-10-13T01:57:54;3.45;;;2.40;;
40198;SDS011;25906;43.536;26.068;2022-10-13T02:00:43;5.40;;;1.88;;
40198;SDS011;25906;43.536;26.068;2022-10-13T02:13:34;4.55;;;2.47;;
40198;SDS011;25906;43.536;26.068;2022-10-13T02:16:25;6.95;;;2.20;;
40198;SDS011;25906;43.536;26.068;2022-10-13T02:19:14;3.40;;;1.73;;
40198;SDS011;25906;43.536;26.068;2022-10-13T02:22:02;2.30;;;1.63;;
40198;SDS011;25906;43.536;26.068;2022-10-13T02:24:49;4.60;;;2.30;;
40198;SDS011;25906;43.536;26.068;2022-10-13T02:27:35;3.30;;;2.10;;
40198;SDS011;25906;43.536;26.068;2022-10-13T02:30:22;4.28;;;1.95;;
40198;SDS011;25906;43.536;26.068;2022-10-13T02:33:09;4.05;;;1.70;;
40198;SDS011;25906;43.536;26.068;2022-10-13T02:35:55;2.60;;;1.70;;
40198;SDS011;25906;43.536;26.068;2022-10-13T02:38:41;5.07;;;2.60;;
40198;SDS011;25906;43.536;26.068;2022-10-13T02:41:27;4.65;;;1.80;;
40198;SDS011;25906;43.536;26.068;2022-10-13T02:44:12;3.08;;;2.20;;
40198;SDS011;25906;43.536;26.068;2022-10-13T02:46:58;4.03;;;2.10;;
40198;SDS011;25906;43.536;26.068;2022-10-13T02:49:44;4.43;;;2.28;;
40198;SDS011;25906;43.536;26.068;2022-10-13T02:52:29;4.35;;;1.92;;
40198;SDS011;25906;43.536;26.068;2022-10-13T02:55:15;7.70;;;2.20;;
40198;SDS011;25906;43.536;26.068;2022-10-13T02:58:00;3.83;;;2.00;;
40198;SDS011;25906;43.536;26.068;2022-10-13T03:00:46;3.78;;;2.33;;
40198;SDS011;25906;43.536;26.068;2022-10-13T03:03:31;3.88;;;2.05;;
40198;SDS011;25906;43.536;26.068;2022-10-13T03:06:17;6.40;;;1.85;;
40198;SDS011;25906;43.536;26.068;2022-10-13T03:09:02;3.67;;;1.95;;
40198;SDS011;25906;43.536;26.068;2022-10-13T03:11:48;3.85;;;1.90;;
40198;SDS011;25906;43.536;26.068;2022-10-13T03:14:33;2.45;;;1.73;;
40198;SDS011;25906;43.536;26.068;2022-10-13T03:17:19;5.40;;;1.92;;
40198;SDS011;25906;43.536;26.068;2022-10-13T03:20:05;6.18;;;2.35;;
40198;SDS011;25906;43.536;26.068;2022-10-13T03:22:51;4.82;;;1.95;;
40198;SDS011;25906;43.536;26.068;2022-10-13T03:25:37;3.50;;;2.08;;
40198;SDS011;25906;43.536;26.068;2022-10-13T03:28:22;7.65;;;2.17;;
40198;SDS011;25906;43.536;26.068;2022-10-13T03:31:09;4.65;;;1.75;;
40198;SDS011;25906;43.536;26.068;2022-10-13T03:33:55;5.18;;;2.05;;
40198;SDS011;25906;43.536;26.068;2022-10-13T03:36:41;4.55;;;2.10;;
40198;SDS011;25906;43.536;26.068;2022-10-13T03:39:27;3.92;;;2.20;;
40198;SDS011;25906;43.536;26.068;2022-10-13T03:42:12;7.20;;;2.25;;
40198;SDS011;25906;43.536;26.068;2022-10-13T03:44:58;2.70;;;1.73;;
40198;SDS011;25906;43.536;26.068;2022-10-13T03:47:44;6.25;;;2.20;;
40198;SDS011;25906;43.536;26.068;2022-10-13T03:50:29;8.55;;;2.10;;
40198;SDS011;25906;43.536;26.068;2022-10-13T03:53:15;3.05;;;1.88;;
40198;SDS011;25906;43.536;26.068;2022-10-13T03:56:01;5.50;;;2.10;;
40198;SDS011;25906;43.536;26.068;2022-10-13T04:01:37;3.53;;;2.10;;
40198;SDS011;25906;43.536;26.068;2022-10-13T04:04:24;3.45;;;2.00;;
40198;SDS011;25906;43.536;26.068;2022-10-13T04:07:09;2.85;;;2.25;;
40198;SDS011;25906;43.536;26.068;2022-10-13T04:09:55;3.67;;;2.08;;
40198;SDS011;25906;43.536;26.068;2022-10-13T04:12:40;4.03;;;2.72;;
40198;SDS011;25906;43.536;26.068;2022-10-13T04:15:26;3.13;;;1.95;;
40198;SDS011;25906;43.536;26.068;2022-10-13T04:18:11;3.97;;;2.15;;
40198;SDS011;25906;43.536;26.068;2022-10-13T04:20:57;4.47;;;2.35;;
40198;SDS011;25906;43.536;26.068;2022-10-13T04:23:42;3.58;;;2.03;;
40198;SDS011;25906;43.536;26.068;2022-10-13T04:26:29;3.78;;;2.03;;
40198;SDS011;25906;43.536;26.068;2022-10-13T04:29:16;3.83;;;2.20;;
40198;SDS011;25906;43.536;26.068;2022-10-13T04:32:02;5.43;;;2.05;;
40198;SDS011;25906;43.536;26.068;2022-10-13T04:34:47;2.80;;;1.85;;
40198;SDS011;25906;43.536;26.068;2022-10-13T04:37:33;4.75;;;1.75;;
40198;SDS011;25906;43.536;26.068;2022-10-13T04:40:18;4.32;;;1.98;;
40198;SDS011;25906;43.536;26.068;2022-10-13T04:43:04;3.92;;;2.17;;
40198;SDS011;25906;43.536;26.068;2022-10-13T04:45:49;7.70;;;1.98;;
40198;SDS011;25906;43.536;26.068;2022-10-13T04:48:35;1.88;;;1.60;;
40198;SDS011;25906;43.536;26.068;2022-10-13T04:51:21;3.72;;;1.90;;
40198;SDS011;25906;43.536;26.068;2022-10-13T04:54:08;5.07;;;1.88;;
40198;SDS011;25906;43.536;26.068;2022-10-13T04:56:54;5.68;;;2.00;;
40198;SDS011;25906;43.536;26.068;2022-10-13T04:59:39;3.58;;;1.90;;
40198;SDS011;25906;43.536;26.068;2022-10-13T05:02:25;3.38;;;1.90;;
40198;SDS011;25906;43.536;26.068;2022-10-13T05:05:10;3.88;;;2.22;;
40198;SDS011;25906;43.536;26.068;2022-10-13T05:07:56;6.10;;;1.92;;
40198;SDS011;25906;43.536;26.068;2022-10-13T05:10:42;3.42;;;1.80;;
40198;SDS011;25906;43.536;26.068;2022-10-13T05:13:28;6.22;;;1.90;;
40198;SDS011;25906;43.536;26.068;2022-10-13T05:16:15;4.53;;;2.65;;
40198;SDS011;25906;43.536;26.068;2022-10-13T05:19:02;6.55;;;2.03;;
40198;SDS011;25906;43.536;26.068;2022-10-13T05:21:48;3.33;;;2.25;;
40198;SDS011;25906;43.536;26.068;2022-10-13T05:24:33;3.65;;;2.25;;
40198;SDS011;25906;43.536;26.068;2022-10-13T05:27:22;6.35;;;2.20;;
40198;SDS011;25906;43.536;26.068;2022-10-13T05:30:08;4.13;;;2.20;;
40198;SDS011;25906;43.536;26.068;2022-10-13T05:32:54;3.28;;;2.10;;
40198;SDS011;25906;43.536;26.068;2022-10-13T05:35:39;3.88;;;2.00;;
40198;SDS011;25906;43.536;26.068;2022-10-13T05:38:25;8.60;;;2.53;;
40198;SDS011;25906;43.536;26.068;2022-10-13T05:41:11;5.30;;;2.45;;
40198;SDS011;25906;43.536;26.068;2022-10-13T05:44:02;6.65;;;2.40;;
40198;SDS011;25906;43.536;26.068;2022-10-13T05:46:50;7.32;;;2.45;;
40198;SDS011;25906;43.536;26.068;2022-10-13T05:49:36;5.45;;;2.08;;
40198;SDS011;25906;43.536;26.068;2022-10-13T05:52:23;6.15;;;2.55;;
40198;SDS011;25906;43.536;26.068;2022-10-13T05:55:10;4.88;;;2.55;;
40198;SDS011;25906;43.536;26.068;2022-10-13T05:58:00;5.65;;;2.20;;
40198;SDS011;25906;43.536;26.068;2022-10-13T06:00:46;3.20;;;2.20;;
40198;SDS011;25906;43.536;26.068;2022-10-13T06:03:32;4.45;;;2.30;;
40198;SDS011;25906;43.536;26.068;2022-10-13T06:06:18;9.13;;;2.03;;
40198;SDS011;25906;43.536;26.068;2022-10-13T06:09:03;3.38;;;2.20;;
40198;SDS011;25906;43.536;26.068;2022-10-13T06:11:49;6.97;;;2.40;;
40198;SDS011;25906;43.536;26.068;2022-10-13T06:14:35;3.63;;;2.25;;
40198;SDS011;25906;43.536;26.068;2022-10-13T06:17:20;4.95;;;2.45;;
40198;SDS011;25906;43.536;26.068;2022-10-13T06:20:06;2.55;;;1.98;;
40198;SDS011;25906;43.536;26.068;2022-10-13T06:22:53;2.55;;;2.15;;
40198;SDS011;25906;43.536;26.068;2022-10-13T06:25:49;4.25;;;2.25;;
40198;SDS011;25906;43.536;26.068;2022-10-13T06:28:36;3.55;;;2.80;;
40198;SDS011;25906;43.536;26.068;2022-10-13T06:31:22;7.22;;;3.17;;
40198;SDS011;25906;43.536;26.068;2022-10-13T06:34:07;5.60;;;2.60;;
40198;SDS011;25906;43.536;26.068;2022-10-13T06:36:53;6.82;;;2.33;;
40198;SDS011;25906;43.536;26.068;2022-10-13T06:39:38;2.20;;;2.00;;
40198;SDS011;25906;43.536;26.068;2022-10-13T06:42:23;6.70;;;2.50;;
40198;SDS011;25906;43.536;26.068;2022-10-13T06:45:09;3.45;;;2.50;;
40198;SDS011;25906;43.536;26.068;2022-10-13T06:47:55;10.95;;;2.42;;
40198;SDS011;25906;43.536;26.068;2022-10-13T06:50:40;4.78;;;2.60;;
40198;SDS011;25906;43.536;26.068;2022-10-13T06:53:26;8.70;;;3.60;;
40198;SDS011;25906;43.536;26.068;2022-10-13T06:56:11;4.88;;;3.22;;
40198;SDS011;25906;43.536;26.068;2022-10-13T06:58:57;5.55;;;3.05;;
40198;SDS011;25906;43.536;26.068;2022-10-13T07:01:42;9.90;;;3.00;;
40198;SDS011;25906;43.536;26.068;2022-10-13T07:04:28;8.63;;;3.35;;
40198;SDS011;25906;43.536;26.068;2022-10-13T07:07:13;6.78;;;2.67;;
40198;SDS011;25906;43.536;26.068;2022-10-13T07:10:00;9.55;;;2.75;;
40198;SDS011;25906;43.536;26.068;2022-10-13T07:12:45;5.20;;;2.50;;
40198;SDS011;25906;43.536;26.068;2022-10-13T07:15:31;10.38;;;3.03;;
40198;SDS011;25906;43.536;26.068;2022-10-13T07:18:17;5.43;;;2.20;;
40198;SDS011;25906;43.536;26.068;2022-10-13T07:21:02;3.13;;;1.98;;
40198;SDS011;25906;43.536;26.068;2022-10-13T07:23:48;5.75;;;2.10;;
40198;SDS011;25906;43.536;26.068;2022-10-13T07:26:34;4.25;;;1.80;;
40198;SDS011;25906;43.536;26.068;2022-10-13T07:29:20;3.53;;;1.75;;
40198;SDS011;25906;43.536;26.068;2022-10-13T07:32:14;6.90;;;2.03;;
40198;SDS011;25906;43.536;26.068;2022-10-13T07:34:59;5.07;;;1.90;;
40198;SDS011;25906;43.536;26.068;2022-10-13T07:37:45;2.40;;;1.80;;
40198;SDS011;25906;43.536;26.068;2022-10-13T07:40:30;4.28;;;1.73;;
40198;SDS011;25906;43.536;26.068;2022-10-13T07:43:16;8.85;;;2.10;;
40198;SDS011;25906;43.536;26.068;2022-10-13T07:46:02;5.38;;;1.88;;
40198;SDS011;25906;43.536;26.068;2022-10-13T07:48:51;4.55;;;1.73;;
40198;SDS011;25906;43.536;26.068;2022-10-13T07:51:37;2.50;;;1.63;;
40198;SDS011;25906;43.536;26.068;2022-10-13T07:54:23;3.53;;;1.60;;
40198;SDS011;25906;43.536;26.068;2022-10-13T07:57:08;5.13;;;1.60;;
40198;SDS011;25906;43.536;26.068;2022-10-13T07:59:54;2.58;;;1.55;;
40198;SDS011;25906;43.536;26.068;2022-10-13T08:02:39;2.65;;;1.48;;
40198;SDS011;25906;43.536;26.068;2022-10-13T08:05:24;5.20;;;1.90;;
40198;SDS011;25906;43.536;26.068;2022-10-13T08:08:10;1.52;;;0.98;;
40198;SDS011;25906;43.536;26.068;2022-10-13T08:10:59;1.38;;;1.00;;
40198;SDS011;25906;43.536;26.068;2022-10-13T08:13:47;2.25;;;0.88;;
40198;SDS011;25906;43.536;26.068;2022-10-13T08:16:34;0.80;;;0.60;;
40198;SDS011;25906;43.536;26.068;2022-10-13T08:19:19;1.42;;;0.90;;
40198;SDS011;25906;43.536;26.068;2022-10-13T08:22:06;2.13;;;1.30;;
40198;SDS011;25906;43.536;26.068;2022-10-13T08:24:52;2.83;;;1.35;;
40198;SDS011;25906;43.536;26.068;2022-10-13T08:27:38;4.90;;;1.70;;
40198;SDS011;25906;43.536;26.068;2022-10-13T08:30:23;6.78;;;1.42;;
40198;SDS011;25906;43.536;26.068;2022-10-13T08:33:09;2.17;;;1.40;;
40198;SDS011;25906;43.536;26.068;2022-10-13T08:35:54;2.92;;;1.60;;
40198;SDS011;25906;43.536;26.068;2022-10-13T08:38:40;2.05;;;1.33;;
40198;SDS011;25906;43.536;26.068;2022-10-13T08:41:27;2.58;;;1.30;;
40198;SDS011;25906;43.536;26.068;2022-10-13T08:47:17;3.00;;;1.05;;
40198;SDS011;25906;43.536;26.068;2022-10-13T08:50:19;10.13;;;1.48;;
40198;SDS011;25906;43.536;26.068;2022-10-13T08:53:11;3.10;;;1.30;;
40198;SDS011;25906;43.536;26.068;2022-10-13T08:56:07;2.55;;;1.10;;
40198;SDS011;25906;43.536;26.068;2022-10-13T08:58:53;3.17;;;1.30;;
40198;SDS011;25906;43.536;26.068;2022-10-13T09:01:40;2.70;;;1.05;;
40198;SDS011;25906;43.536;26.068;2022-10-13T09:04:31;3.25;;;1.27;;
40198;SDS011;25906;43.536;26.068;2022-10-13T09:07:23;2.03;;;1.33;;
40198;SDS011;25906;43.536;26.068;2022-10-13T09:10:12;1.85;;;1.10;;
40198;SDS011;25906;43.536;26.068;2022-10-13T09:12:59;2.50;;;1.27;;
40198;SDS011;25906;43.536;26.068;2022-10-13T09:15:45;2.95;;;1.20;;
40198;SDS011;25906;43.536;26.068;2022-10-13T09:18:34;1.45;;;1.15;;
40198;SDS011;25906;43.536;26.068;2022-10-13T09:21:24;3.28;;;1.30;;
40198;SDS011;25906;43.536;26.068;2022-10-13T09:24:14;3.80;;;1.25;;
40198;SDS011;25906;43.536;26.068;2022-10-13T09:27:04;1.10;;;1.00;;
40198;SDS011;25906;43.536;26.068;2022-10-13T09:30:07;1.20;;;1.00;;
40198;SDS011;25906;43.536;26.068;2022-10-13T09:41:50;1.77;;;0.80;;
40198;SDS011;25906;43.536;26.068;2022-10-13T09:44:37;0.52;;;0.52;;
40198;SDS011;25906;43.536;26.068;2022-10-13T09:47:22;1.17;;;0.85;;
40198;SDS011;25906;43.536;26.068;2022-10-13T09:50:15;0.60;;;0.60;;
40198;SDS011;25906;43.536;26.068;2022-10-13T09:53:14;2.65;;;0.65;;
40198;SDS011;25906;43.536;26.068;2022-10-13T10:02:40;3.40;;;0.75;;
40198;SDS011;25906;43.536;26.068;2022-10-13T10:08:39;1.27;;;0.80;;
40198;SDS011;25906;43.536;26.068;2022-10-13T10:14:29;2.53;;;0.60;;
40198;SDS011;25906;43.536;26.068;2022-10-13T10:17:25;0.82;;;0.63;;
40198;SDS011;25906;43.536;26.068;2022-10-13T10:29:36;0.40;;;0.40;;
40198;SDS011;25906;43.536;26.068;2022-10-13T10:45:08;7.38;;;0.70;;
40198;SDS011;25906;43.536;26.068;2022-10-13T10:48:03;0.52;;;0.50;;
40198;SDS011;25906;43.536;26.068;2022-10-13T10:50:56;3.05;;;0.50;;
40198;SDS011;25906;43.536;26.068;2022-10-13T10:56:38;0.60;;;0.50;;
40198;SDS011;25906;43.536;26.068;2022-10-13T11:03:00;2.80;;;0.70;;
40198;SDS011;25906;43.536;26.068;2022-10-13T11:08:42;1.60;;;0.95;;
40198;SDS011;25906;43.536;26.068;2022-10-13T11:11:29;1.65;;;0.77;;
40198;SDS011;25906;43.536;26.068;2022-10-13T11:14:22;0.60;;;0.57;;
40198;SDS011;25906;43.536;26.068;2022-10-13T11:17:15;5.28;;;0.88;;
40198;SDS011;25906;43.536;26.068;2022-10-13T11:25:50;2.00;;;0.80;;
40198;SDS011;25906;43.536;26.068;2022-10-13T11:31:28;2.30;;;0.60;;
40198;SDS011;25906;43.536;26.068;2022-10-13T11:34:29;1.08;;;0.70;;
40198;SDS011;25906;43.536;26.068;2022-10-13T11:37:16;6.18;;;0.65;;
40198;SDS011;25906;43.536;26.068;2022-10-13T11:40:15;1.10;;;0.98;;
40198;SDS011;25906;43.536;26.068;2022-10-13T11:58:40;2.20;;;0.90;;
40198;SDS011;25906;43.536;26.068;2022-10-13T12:01:26;2.25;;;1.30;;
40198;SDS011;25906;43.536;26.068;2022-10-13T12:04:12;3.00;;;1.73;;
40198;SDS011;25906;43.536;26.068;2022-10-13T12:06:59;4.00;;;1.13;;
40198;SDS011;25906;43.536;26.068;2022-10-13T12:09:56;0.95;;;0.70;;
40198;SDS011;25906;43.536;26.068;2022-10-13T12:12:45;3.05;;;0.80;;
40198;SDS011;25906;43.536;26.068;2022-10-13T12:15:37;0.85;;;0.70;;
40198;SDS011;25906;43.536;26.068;2022-10-13T12:18:27;1.35;;;0.90;;
40198;SDS011;25906;43.536;26.068;2022-10-13T12:21:21;0.77;;;0.70;;
40198;SDS011;25906;43.536;26.068;2022-10-13T12:24:07;1.80;;;0.70;;
40198;SDS011;25906;43.536;26.068;2022-10-13T12:26:54;0.55;;;0.40;;
40198;SDS011;25906;43.536;26.068;2022-10-13T12:29:40;2.83;;;0.63;;
40198;SDS011;25906;43.536;26.068;2022-10-13T12:32:26;0.63;;;0.63;;
40198;SDS011;25906;43.536;26.068;2022-10-13T12:35:16;3.30;;;0.47;;
40198;SDS011;25906;43.536;26.068;2022-10-13T12:38:12;0.50;;;0.50;;
40198;SDS011;25906;43.536;26.068;2022-10-13T12:41:03;0.73;;;0.60;;
40198;SDS011;25906;43.536;26.068;2022-10-13T12:43:49;1.05;;;0.75;;
40198;SDS011;25906;43.536;26.068;2022-10-13T12:46:36;0.68;;;0.60;;
40198;SDS011;25906;43.536;26.068;2022-10-13T12:49:27;2.65;;;0.60;;
40198;SDS011;25906;43.536;26.068;2022-10-13T12:52:22;0.82;;;0.70;;
40198;SDS011;25906;43.536;26.068;2022-10-13T12:55:16;0.75;;;0.50;;
40198;SDS011;25906;43.536;26.068;2022-10-13T12:58:03;1.67;;;0.63;;
40198;SDS011;25906;43.536;26.068;2022-10-13T13:07:27;6.20;;;0.75;;
40198;SDS011;25906;43.536;26.068;2022-10-13T13:10:17;1.85;;;0.70;;
40198;SDS011;25906;43.536;26.068;2022-10-13T13:13:12;0.50;;;0.50;;
40198;SDS011;25906;43.536;26.068;2022-10-13T13:16:12;0.90;;;0.70;;
40198;SDS011;25906;43.536;26.068;2022-10-13T13:19:03;1.80;;;0.63;;
40198;SDS011;25906;43.536;26.068;2022-10-13T13:21:48;0.68;;;0.57;;
40198;SDS011;25906;43.536;26.068;2022-10-13T13:30:10;1.15;;;0.50;;
40198;SDS011;25906;43.536;26.068;2022-10-13T13:32:57;2.38;;;0.55;;
40198;SDS011;25906;43.536;26.068;2022-10-13T13:35:42;1.33;;;0.45;;
40198;SDS011;25906;43.536;26.068;2022-10-13T13:38:28;1.10;;;0.60;;
40198;SDS011;25906;43.536;26.068;2022-10-13T13:41:13;0.50;;;0.50;;
40198;SDS011;25906;43.536;26.068;2022-10-13T13:43:59;0.70;;;0.60;;
40198;SDS011;25906;43.536;26.068;2022-10-13T13:46:45;0.68;;;0.55;;
40198;SDS011;25906;43.536;26.068;2022-10-13T13:49:30;1.48;;;0.70;;
40198;SDS011;25906;43.536;26.068;2022-10-13T13:52:16;1.17;;;0.50;;
40198;SDS011;25906;43.536;26.068;2022-10-13T13:55:02;0.57;;;0.50;;
40198;SDS011;25906;43.536;26.068;2022-10-13T13:57:47;0.50;;;0.50;;
40198;SDS011;25906;43.536;26.068;2022-10-13T14:00:33;4.70;;;0.70;;
40198;SDS011;25906;43.536;26.068;2022-10-13T14:03:18;0.98;;;0.60;;
40198;SDS011;25906;43.536;26.068;2022-10-13T14:06:04;1.23;;;0.60;;
40198;SDS011;25906;43.536;26.068;2022-10-13T14:08:50;2.15;;;0.63;;
40198;SDS011;25906;43.536;26.068;2022-10-13T14:11:35;1.10;;;0.40;;
40198;SDS011;25906;43.536;26.068;2022-10-13T14:14:20;2.30;;;0.50;;
40198;SDS011;25906;43.536;26.068;2022-10-13T14:17:06;1.35;;;0.50;;
40198;SDS011;25906;43.536;26.068;2022-10-13T14:19:51;1.90;;;0.65;;
40198;SDS011;25906;43.536;26.068;2022-10-13T14:22:37;0.40;;;0.40;;
40198;SDS011;25906;43.536;26.068;2022-10-13T14:25:23;1.08;;;0.60;;
40198;SDS011;25906;43.536;26.068;2022-10-13T14:28:09;1.02;;;0.77;;
40198;SDS011;25906;43.536;26.068;2022-10-13T14:30:54;2.00;;;0.57;;
40198;SDS011;25906;43.536;26.068;2022-10-13T14:36:25;0.70;;;0.70;;
40198;SDS011;25906;43.536;26.068;2022-10-13T14:39:11;0.47;;;0.47;;
40198;SDS011;25906;43.536;26.068;2022-10-13T14:41:56;0.45;;;0.40;;
40198;SDS011;25906;43.536;26.068;2022-10-13T14:44:42;0.52;;;0.52;;
40198;SDS011;25906;43.536;26.068;2022-10-13T14:47:27;0.52;;;0.50;;
40198;SDS011;25906;43.536;26.068;2022-10-13T14:50:12;0.82;;;0.40;;
40198;SDS011;25906;43.536;26.068;2022-10-13T14:52:58;0.85;;;0.47;;
40198;SDS011;25906;43.536;26.068;2022-10-13T14:55:43;0.77;;;0.50;;
40198;SDS011;25906;43.536;26.068;2022-10-13T14:58:29;0.60;;;0.50;;
40198;SDS011;25906;43.536;26.068;2022-10-13T15:01:15;0.40;;;0.40;;
40198;SDS011;25906;43.536;26.068;2022-10-13T15:04:02;0.50;;;0.45;;
40198;SDS011;25906;43.536;26.068;2022-10-13T15:06:47;0.40;;;0.40;;
40198;SDS011;25906;43.536;26.068;2022-10-13T15:09:33;1.58;;;0.50;;
40198;SDS011;25906;43.536;26.068;2022-10-13T15:12:18;0.40;;;0.40;;
40198;SDS011;25906;43.536;26.068;2022-10-13T15:17:49;1.10;;;0.50;;
40198;SDS011;25906;43.536;26.068;2022-10-13T15:20:35;2.38;;;0.52;;
40198;SDS011;25906;43.536;26.068;2022-10-13T15:23:20;4.47;;;0.50;;
40198;SDS011;25906;43.536;26.068;2022-10-13T15:26:06;1.98;;;0.50;;
40198;SDS011;25906;43.536;26.068;2022-10-13T15:28:52;0.50;;;0.50;;
40198;SDS011;25906;43.536;26.068;2022-10-13T15:34:23;0.63;;;0.45;;
40198;SDS011;25906;43.536;26.068;2022-10-13T15:37:08;1.02;;;0.50;;
40198;SDS011;25906;43.536;26.068;2022-10-13T15:39:54;0.60;;;0.57;;
40198;SDS011;25906;43.536;26.068;2022-10-13T15:42:40;0.45;;;0.45;;
40198;SDS011;25906;43.536;26.068;2022-10-13T15:45:25;3.83;;;0.60;;
40198;SDS011;25906;43.536;26.068;2022-10-13T15:48:10;0.93;;;0.50;;
40198;SDS011;25906;43.536;26.068;2022-10-13T15:50:57;4.13;;;0.50;;
40198;SDS011;25906;43.536;26.068;2022-10-13T15:53:42;1.10;;;0.60;;
40198;SDS011;25906;43.536;26.068;2022-10-13T15:56:27;0.57;;;0.40;;
40198;SDS011;25906;43.536;26.068;2022-10-13T15:59:13;1.35;;;1.25;;
40198;SDS011;25906;43.536;26.068;2022-10-13T16:01:58;2.47;;;1.40;;
40198;SDS011;25906;43.536;26.068;2022-10-13T16:04:44;2.53;;;1.50;;
40198;SDS011;25906;43.536;26.068;2022-10-13T16:07:30;6.38;;;2.78;;
40198;SDS011;25906;43.536;26.068;2022-10-13T16:10:16;9.18;;;3.38;;
40198;SDS011;25906;43.536;26.068;2022-10-13T16:13:02;7.32;;;3.13;;
40198;SDS011;25906;43.536;26.068;2022-10-13T16:15:57;5.88;;;3.13;;
40198;SDS011;25906;43.536;26.068;2022-10-13T16:21:29;4.38;;;2.72;;
40198;SDS011;25906;43.536;26.068;2022-10-13T16:24:14;5.75;;;3.33;;
40198;SDS011;25906;43.536;26.068;2022-10-13T16:27:00;5.38;;;2.85;;
40198;SDS011;25906;43.536;26.068;2022-10-13T16:29:45;3.17;;;1.90;;
40198;SDS011;25906;43.536;26.068;2022-10-13T16:32:35;3.22;;;0.75;;
40198;SDS011;25906;43.536;26.068;2022-10-13T16:35:22;5.20;;;0.63;;
40198;SDS011;25906;43.536;26.068;2022-10-13T16:38:07;1.48;;;0.90;;
40198;SDS011;25906;43.536;26.068;2022-10-13T16:40:53;2.00;;;1.27;;
40198;SDS011;25906;43.536;26.068;2022-10-13T16:43:38;1.63;;;0.77;;
40198;SDS011;25906;43.536;26.068;2022-10-13T16:46:24;1.60;;;0.60;;
40198;SDS011;25906;43.536;26.068;2022-10-13T16:49:09;2.13;;;0.80;;
40198;SDS011;25906;43.536;26.068;2022-10-13T16:51:55;1.95;;;1.20;;
40198;SDS011;25906;43.536;26.068;2022-10-13T16:54:41;5.35;;;1.27;;
40198;SDS011;25906;43.536;26.068;2022-10-13T16:57:27;0.88;;;0.85;;
40198;SDS011;25906;43.536;26.068;2022-10-13T17:00:13;1.48;;;0.70;;
40198;SDS011;25906;43.536;26.068;2022-10-13T17:02:58;8.48;;;1.67;;
40198;SDS011;25906;43.536;26.068;2022-10-13T17:05:44;1.55;;;1.05;;
40198;SDS011;25906;43.536;26.068;2022-10-13T17:08:30;12.40;;;1.30;;
40198;SDS011;25906;43.536;26.068;2022-10-13T17:14:05;3.15;;;1.05;;
40198;SDS011;25906;43.536;26.068;2022-10-13T17:16:50;3.42;;;0.70;;
40198;SDS011;25906;43.536;26.068;2022-10-13T17:19:36;1.58;;;0.95;;
40198;SDS011;25906;43.536;26.068;2022-10-13T17:22:21;1.73;;;0.90;;
40198;SDS011;25906;43.536;26.068;2022-10-13T17:25:07;5.70;;;0.80;;
40198;SDS011;25906;43.536;26.068;2022-10-13T17:27:52;2.72;;;1.10;;
40198;SDS011;25906;43.536;26.068;2022-10-13T17:30:38;0.68;;;0.65;;
40198;SDS011;25906;43.536;26.068;2022-10-13T17:33:24;3.50;;;1.25;;
40198;SDS011;25906;43.536;26.068;2022-10-13T17:36:17;0.90;;;0.70;;
40198;SDS011;25906;43.536;26.068;2022-10-13T17:39:10;1.27;;;0.80;;
40198;SDS011;25906;43.536;26.068;2022-10-13T17:44:41;4.30;;;0.80;;
40198;SDS011;25906;43.536;26.068;2022-10-13T17:47:27;8.35;;;0.85;;
40198;SDS011;25906;43.536;26.068;2022-10-13T17:50:13;5.28;;;0.85;;
40198;SDS011;25906;43.536;26.068;2022-10-13T17:53:00;3.95;;;0.70;;
40198;SDS011;25906;43.536;26.068;2022-10-13T17:55:46;2.08;;;1.00;;
40198;SDS011;25906;43.536;26.068;2022-10-13T17:58:33;4.15;;;1.08;;
40198;SDS011;25906;43.536;26.068;2022-10-13T18:01:21;2.08;;;1.08;;
40198;SDS011;25906;43.536;26.068;2022-10-13T18:04:09;2.17;;;0.88;;
40198;SDS011;25906;43.536;26.068;2022-10-13T18:06:56;1.00;;;0.60;;
40198;SDS011;25906;43.536;26.068;2022-10-13T18:09:42;5.25;;;1.08;;
40198;SDS011;25906;43.536;26.068;2022-10-13T18:15:13;1.25;;;0.63;;
40198;SDS011;25906;43.536;26.068;2022-10-13T18:17:58;2.25;;;0.80;;
40198;SDS011;25906;43.536;26.068;2022-10-13T18:20:44;1.58;;;1.08;;
40198;SDS011;25906;43.536;26.068;2022-10-13T18:23:33;2.92;;;0.93;;
40198;SDS011;25906;43.536;26.068;2022-10-13T18:26:20;4.07;;;1.00;;
40198;SDS011;25906;43.536;26.068;2022-10-13T18:29:07;2.80;;;0.80;;
40198;SDS011;25906;43.536;26.068;2022-10-13T18:31:54;3.28;;;1.38;;
40198;SDS011;25906;43.536;26.068;2022-10-13T18:34:42;3.33;;;1.13;;
40198;SDS011;25906;43.536;26.068;2022-10-13T18:37:27;1.55;;;0.80;;
40198;SDS011;25906;43.536;26.068;2022-10-13T18:42:59;15.77;;;5.38;;
40198;SDS011;25906;43.536;26.068;2022-10-13T18:45:44;25.20;;;6.78;;
40198;SDS011;25906;43.536;26.068;2022-10-13T18:48:30;19.25;;;5.20;;
40198;SDS011;25906;43.536;26.068;2022-10-13T18:51:16;2.45;;;1.65;;